createdAt,value
2017-07-19T00:01:24.326Z,99006.92
2017-07-19T00:03:55.953Z,99004.56
2017-07-19T00:06:27.471Z,99002.39
2017-07-19T00:09:01.334Z,99009.14
2017-07-19T00:11:33.602Z,99003.91
2017-07-19T00:14:06.744Z,98963.56
2017-07-19T00:16:38.293Z,98998.38
2017-07-19T00:19:10.038Z,98982.38
2017-07-19T00:21:41.784Z,98994.34
2017-07-19T00:24:13.912Z,99004.90
2017-07-19T00:26:46.522Z,98987.16
2017-07-19T00:29:17.815Z,98993.52
2017-07-19T00:31:49.087Z,99004.78
2017-07-19T00:34:20.983Z,98999.70
2017-07-19T00:36:52.933Z,99004.14
2017-07-19T00:39:24.566Z,98998.59
2017-07-19T00:41:56.812Z,99000.97
2017-07-19T00:44:28.242Z,98995.17
2017-07-19T00:47:01.886Z,98996.94
2017-07-19T00:49:33.238Z,98989.00
2017-07-19T00:52:06.390Z,98989.73
2017-07-19T00:54:38.020Z,98979.47
2017-07-19T00:57:09.574Z,98988.73
2017-07-19T00:59:41.077Z,98984.75
2017-07-19T01:02:13.123Z,98985.61
2017-07-19T01:04:44.920Z,98977.73
2017-07-19T01:07:16.813Z,98943.81
2017-07-19T01:09:48.511Z,98981.22
2017-07-19T01:12:20.169Z,98969.78
2017-07-19T01:14:52.256Z,98938.53
2017-07-19T01:17:23.946Z,98982.28
2017-07-19T01:19:55.916Z,98978.38
2017-07-19T01:22:28.244Z,98980.95
2017-07-19T01:25:03.381Z,98959.44
2017-07-19T01:27:45.651Z,98982.31
2017-07-19T01:30:33.016Z,98946.83
2017-07-19T01:33:07.475Z,98970.63
2017-07-19T01:35:39.789Z,98973.84
2017-07-19T01:38:11.613Z,98986.06
2017-07-19T01:40:42.937Z,98973.44
2017-07-19T01:43:16.202Z,98949.94
2017-07-19T01:45:47.632Z,98963.98
2017-07-19T01:48:20.178Z,98976.71
2017-07-19T01:50:52.434Z,98936.96
2017-07-19T01:53:24.868Z,98951.07
2017-07-19T01:55:56.375Z,98974.69
2017-07-19T01:58:28.187Z,98968.16
2017-07-19T02:01:02.205Z,98955.34
2017-07-19T02:03:34.103Z,98965.85
2017-07-19T02:06:07.710Z,98898.63
2017-07-19T02:08:39.229Z,98947.25
2017-07-19T02:11:10.787Z,98933.49
2017-07-19T02:13:42.252Z,98943.70
2017-07-19T02:16:15.626Z,98949.27
2017-07-19T02:18:48.388Z,98951.77
2017-07-19T02:21:20.320Z,98936.47
2017-07-19T02:23:52.100Z,98953.18
2017-07-19T02:26:23.502Z,98932.30
2017-07-19T02:28:55.277Z,98946.55
2017-07-19T02:31:26.997Z,98950.61
2017-07-19T02:33:59.205Z,98942.16
2017-07-19T02:36:32.118Z,98937.89
2017-07-19T02:39:06.376Z,98934.91
2017-07-19T02:41:37.870Z,98931.58
2017-07-19T02:44:09.618Z,98927.88
2017-07-19T02:46:41.115Z,98926.66
2017-07-19T02:49:12.269Z,98922.09
2017-07-19T02:51:44.104Z,98912.17
2017-07-19T02:54:15.441Z,98919.87
2017-07-19T02:56:46.918Z,98919.17
2017-07-19T02:59:18.742Z,98913.39
2017-07-19T03:01:50.197Z,98914.77
2017-07-19T03:04:22.196Z,98913.91
2017-07-19T03:06:53.689Z,98904.75
2017-07-19T03:09:25.049Z,98922.66
2017-07-19T03:11:56.432Z,98932.92
2017-07-19T03:14:28.141Z,98941.75
2017-07-19T03:17:00.684Z,98935.47
2017-07-19T03:19:31.832Z,98939.69
2017-07-19T03:22:06.232Z,98929.64
2017-07-19T03:24:37.625Z,98944.52
2017-07-19T03:27:09.064Z,98950.13
2017-07-19T03:29:41.159Z,98949.98
2017-07-19T03:32:13.128Z,98949.42
2017-07-19T03:34:44.511Z,98944.83
2017-07-19T03:37:16.319Z,98946.45
2017-07-19T03:39:47.664Z,98941.30
2017-07-19T03:42:19.193Z,98947.27
2017-07-19T03:44:51.342Z,98946.91
2017-07-19T03:47:22.980Z,98939.17
2017-07-19T03:49:54.298Z,98927.55
2017-07-19T03:52:26.336Z,98939.22
2017-07-19T03:54:57.716Z,98943.27
2017-07-19T03:57:29.072Z,98941.17
2017-07-19T04:00:03.405Z,98936.84
2017-07-19T04:02:34.858Z,98941.03
2017-07-19T04:05:28.288Z,98915.64
2017-07-19T04:08:01.652Z,98938.73
2017-07-19T04:10:33.013Z,98930.80
2017-07-19T04:13:06.253Z,98936.61
2017-07-19T04:15:37.797Z,98937.69
2017-07-19T04:18:09.397Z,98936.87
2017-07-19T04:20:41.112Z,98933.22
2017-07-19T04:23:12.265Z,98934.07
2017-07-19T04:25:44.865Z,98888.56
2017-07-19T04:28:21.920Z,98920.45
2017-07-19T04:30:53.866Z,98899.23
2017-07-19T04:33:25.620Z,98915.58
2017-07-19T04:35:57.608Z,98914.47
2017-07-19T04:38:29.264Z,98909.84
2017-07-19T04:41:02.419Z,98914.67
2017-07-19T04:43:34.440Z,98921.70
2017-07-19T04:46:06.843Z,98898.74
2017-07-19T04:48:38.293Z,98916.82
2017-07-19T04:51:10.279Z,98914.16
2017-07-19T04:53:41.848Z,98910.52
2017-07-19T04:56:13.882Z,98920.06
2017-07-19T04:58:47.875Z,98925.33
2017-07-19T05:01:20.733Z,98922.34
2017-07-19T05:03:54.492Z,98928.89
2017-07-19T05:06:26.730Z,98922.23
2017-07-19T05:08:59.708Z,98911.66
2017-07-19T05:11:32.161Z,98920.74
2017-07-19T05:14:06.194Z,98920.09
2017-07-19T05:16:39.374Z,98914.03
2017-07-19T05:19:10.768Z,98896.58
2017-07-19T05:21:42.988Z,98904.37
2017-07-19T05:24:15.571Z,98905.85
2017-07-19T05:26:47.532Z,98904.76
2017-07-19T05:29:19.303Z,98893.78
2017-07-19T05:31:51.596Z,98914.88
2017-07-19T05:34:23.430Z,98909.41
2017-07-19T05:36:54.929Z,98917.55
2017-07-19T05:39:27.203Z,98916.45
2017-07-19T05:42:02.284Z,98920.72
2017-07-19T05:44:34.607Z,98923.48
2017-07-19T05:47:06.837Z,98854.55
2017-07-19T05:49:38.402Z,98900.31
2017-07-19T05:52:10.211Z,98886.76
2017-07-19T05:54:41.585Z,98916.33
2017-07-19T05:57:13.331Z,98912.55
2017-07-19T05:59:44.612Z,98922.80
2017-07-19T06:02:16.220Z,98920.72
2017-07-19T06:04:47.729Z,98926.22
2017-07-19T06:07:19.085Z,98919.80
2017-07-19T06:09:50.719Z,98915.30
2017-07-19T06:12:24.153Z,98917.77
2017-07-19T06:14:55.774Z,98922.93
2017-07-19T06:17:27.707Z,98911.93
2017-07-19T06:20:01.373Z,98911.59
2017-07-19T06:22:32.686Z,98909.49
2017-07-19T06:25:10.481Z,98898.93
2017-07-19T06:27:42.437Z,98913.37
2017-07-19T06:30:14.120Z,98916.61
2017-07-19T06:32:45.934Z,98914.38
2017-07-19T06:35:17.297Z,98900.11
2017-07-19T06:37:48.752Z,98909.75
2017-07-19T06:40:20.600Z,98912.58
2017-07-19T06:42:51.957Z,98911.79
2017-07-19T06:45:23.503Z,98914.53
2017-07-19T06:47:54.938Z,98914.18
2017-07-19T06:50:26.268Z,98916.63
2017-07-19T06:52:57.687Z,98918.03
2017-07-19T06:55:28.911Z,98909.11
2017-07-19T06:58:03.119Z,98901.94
2017-07-19T07:00:34.948Z,98889.83
2017-07-19T07:03:07.729Z,98886.13
2017-07-19T07:05:39.564Z,98888.11
2017-07-19T07:08:12.142Z,98868.84
2017-07-19T07:10:46.861Z,98889.86
2017-07-19T07:13:20.028Z,98884.66
2017-07-19T07:15:53.659Z,98865.33
2017-07-19T07:18:26.070Z,98873.39
2017-07-19T07:20:58.359Z,98865.52
2017-07-19T07:23:29.947Z,98868.00
2017-07-19T07:26:02.795Z,98861.45
2017-07-19T07:28:35.569Z,98861.27
2017-07-19T07:31:06.979Z,98849.81
2017-07-19T07:33:39.161Z,98840.91
2017-07-19T07:36:11.825Z,98825.95
2017-07-19T07:38:43.346Z,98818.36
2017-07-19T07:41:15.876Z,98825.27
2017-07-19T07:43:47.248Z,98831.81
2017-07-19T07:46:19.248Z,98827.58
2017-07-19T07:48:50.802Z,98832.74
2017-07-19T07:51:22.398Z,98832.52
2017-07-19T07:53:53.448Z,98807.41
2017-07-19T07:56:26.200Z,98824.87
2017-07-19T07:58:58.358Z,98830.09
2017-07-19T08:01:30.217Z,98834.80
2017-07-19T08:04:04.459Z,98836.66
2017-07-19T08:06:36.225Z,98837.13
2017-07-19T08:09:07.920Z,98836.61
2017-07-19T08:11:39.313Z,98834.90
2017-07-19T08:14:12.400Z,98811.27
2017-07-19T08:16:45.823Z,98811.66
2017-07-19T08:19:19.950Z,98830.34
2017-07-19T08:21:52.422Z,98822.43
2017-07-19T08:24:23.664Z,98815.97
2017-07-19T08:26:54.931Z,98818.70
2017-07-19T08:29:26.961Z,98810.97
2017-07-19T08:32:00.763Z,98789.29
2017-07-19T08:34:32.207Z,98793.81
2017-07-19T08:37:06.394Z,98786.89
2017-07-19T08:39:37.784Z,98781.93
2017-07-19T08:42:09.537Z,98757.33
2017-07-19T08:44:41.624Z,98774.80
2017-07-19T08:47:13.059Z,98775.25
2017-07-19T08:49:45.132Z,98771.23
2017-07-19T08:52:17.198Z,98776.52
2017-07-19T08:54:48.732Z,98772.06
2017-07-19T08:58:43.718Z,98714.20
2017-07-19T09:01:15.199Z,98746.45
2017-07-19T09:03:46.618Z,98755.40
2017-07-19T09:06:18.206Z,98746.89
2017-07-19T09:08:49.687Z,98740.34
2017-07-19T09:11:21.939Z,98750.33
2017-07-19T09:13:57.985Z,98721.16
2017-07-19T09:16:29.289Z,98750.46
2017-07-19T09:19:03.307Z,98740.35
2017-07-19T09:21:35.106Z,98729.89
2017-07-19T09:24:06.709Z,98715.25
2017-07-19T09:26:38.093Z,98735.59
2017-07-19T09:29:09.670Z,98725.14
2017-07-19T09:31:41.073Z,98723.72
2017-07-19T09:34:12.389Z,98701.66
2017-07-19T09:36:43.884Z,98723.93
2017-07-19T09:39:15.140Z,98719.94
2017-07-19T09:41:46.649Z,98717.48
2017-07-19T09:44:18.123Z,98713.08
2017-07-19T09:46:49.432Z,98704.95
2017-07-19T09:49:37.652Z,98690.66
2017-07-19T09:52:08.910Z,98687.31
2017-07-19T09:54:41.041Z,98674.91
2017-07-19T09:57:12.251Z,98694.46
2017-07-19T09:59:43.495Z,98684.05
2017-07-19T10:02:15.655Z,98676.97
2017-07-19T10:04:47.090Z,98670.05
2017-07-19T10:07:18.238Z,98686.16
2017-07-19T10:09:50.291Z,98682.27
2017-07-19T10:12:21.952Z,98675.70
2017-07-19T10:14:53.260Z,98671.52
2017-07-19T10:17:27.087Z,98665.35
2017-07-19T10:20:01.609Z,98647.92
2017-07-19T10:22:33.685Z,98660.75
2017-07-19T10:25:08.543Z,98618.69
2017-07-19T10:27:39.932Z,98651.69
2017-07-19T10:30:11.664Z,98626.97
2017-07-19T10:32:43.010Z,98642.53
2017-07-19T10:35:18.997Z,98640.59
2017-07-19T10:37:52.087Z,98628.23
2017-07-19T10:40:24.274Z,98624.03
2017-07-19T10:42:55.621Z,98622.97
2017-07-19T10:45:28.506Z,98613.23
2017-07-19T10:48:03.349Z,98617.95
2017-07-19T10:50:35.948Z,98622.42
2017-07-19T10:53:07.483Z,98618.53
2017-07-19T10:55:38.710Z,98614.63
2017-07-19T10:58:10.299Z,98605.43
2017-07-19T11:00:41.495Z,98612.19
2017-07-19T11:03:13.066Z,98567.64
2017-07-19T11:05:45.014Z,98599.76
2017-07-19T11:08:17.136Z,98585.94
2017-07-19T11:10:48.495Z,98589.84
2017-07-19T11:13:20.342Z,98599.06
2017-07-19T11:15:51.758Z,98599.80
2017-07-19T11:18:23.121Z,98603.80
2017-07-19T11:20:54.691Z,98614.73
2017-07-19T11:23:26.030Z,98603.36
2017-07-19T11:25:57.615Z,98592.09
2017-07-19T11:28:29.139Z,98594.49
2017-07-19T11:31:02.380Z,98588.28
2017-07-19T11:33:34.085Z,98589.91
2017-07-19T11:36:06.649Z,98541.23
2017-07-19T11:38:38.525Z,98577.36
2017-07-19T11:41:09.946Z,98581.34
2017-07-19T11:43:43.386Z,98571.99
2017-07-19T11:46:15.405Z,98576.17
2017-07-19T11:48:47.021Z,98567.35
2017-07-19T11:51:18.804Z,98571.78
2017-07-19T11:53:50.293Z,98558.45
2017-07-19T11:56:22.510Z,98577.50
2017-07-19T11:58:54.388Z,98573.41
2017-07-19T12:01:25.977Z,98577.09
2017-07-19T12:04:04.707Z,98541.61
2017-07-19T12:06:36.445Z,98575.73
2017-07-19T12:09:08.204Z,98572.16
2017-07-19T12:11:40.351Z,98575.64
2017-07-19T12:14:11.681Z,98555.82
2017-07-19T12:16:43.506Z,98553.61
2017-07-19T12:19:14.771Z,98550.52
2017-07-19T12:21:46.002Z,98550.35
2017-07-19T12:24:17.142Z,98542.89
2017-07-19T12:26:48.315Z,98549.84
2017-07-19T12:29:20.366Z,98551.94
2017-07-19T12:31:51.595Z,98558.95
2017-07-19T12:34:23.108Z,98541.62
2017-07-19T12:36:54.633Z,98541.41
2017-07-19T12:39:25.893Z,98532.91
2017-07-19T12:41:58.286Z,98524.92
2017-07-19T12:44:29.462Z,98538.75
2017-07-19T12:47:04.694Z,98517.25
2017-07-19T12:49:36.386Z,98522.19
2017-07-19T12:52:07.717Z,98518.88
2017-07-19T12:54:39.629Z,98515.31
2017-07-19T12:57:11.617Z,98517.61
2017-07-19T12:59:43.193Z,98514.72
2017-07-19T13:02:14.450Z,98523.26
2017-07-19T13:04:46.209Z,98521.55
2017-07-19T13:07:17.728Z,98508.83
2017-07-19T13:09:49.354Z,98449.20
2017-07-19T13:12:20.616Z,98500.69
2017-07-19T13:14:52.919Z,98497.09
2017-07-19T13:17:24.903Z,98486.17
2017-07-19T13:19:56.389Z,98500.93
2017-07-19T13:22:28.051Z,98494.57
2017-07-19T13:25:01.178Z,98483.77
2017-07-19T13:27:32.555Z,98484.66
2017-07-19T13:30:05.952Z,98480.49
2017-07-19T13:32:37.524Z,98485.97
2017-07-19T13:35:10.034Z,98475.57
2017-07-19T13:37:41.343Z,98464.88
2017-07-19T13:40:13.600Z,98469.67
2017-07-19T13:42:45.191Z,98465.66
2017-07-19T13:45:16.691Z,98467.91
2017-07-19T13:47:48.151Z,98473.02
2017-07-19T13:50:19.703Z,98477.84
2017-07-19T13:52:50.886Z,98465.43
2017-07-19T13:55:22.647Z,98458.77
2017-07-19T13:57:54.598Z,98453.91
2017-07-19T14:00:26.032Z,98444.44
2017-07-19T14:02:57.773Z,98443.39
2017-07-19T14:05:29.159Z,98423.10
2017-07-19T14:08:02.663Z,98442.91
2017-07-19T14:10:34.704Z,98433.20
2017-07-19T14:13:06.724Z,98417.50
2017-07-19T14:15:37.996Z,98415.87
2017-07-19T14:18:10.059Z,98426.21
2017-07-19T14:20:41.514Z,98421.14
2017-07-19T14:23:12.917Z,98419.72
2017-07-19T14:25:44.717Z,98421.01
2017-07-19T14:28:15.892Z,98413.88
2017-07-19T14:30:47.225Z,98391.52
2017-07-19T14:33:18.624Z,98372.66
2017-07-19T14:35:51.000Z,98384.41
2017-07-19T14:38:23.964Z,98381.02
2017-07-19T14:40:55.397Z,98389.36
2017-07-19T14:43:27.706Z,98373.40
2017-07-19T14:46:00.737Z,98381.88
2017-07-19T14:48:32.627Z,98382.05
2017-07-19T14:51:05.181Z,98368.34
2017-07-19T14:53:37.091Z,98367.64
2017-07-19T14:56:08.965Z,98363.41
2017-07-19T14:58:50.476Z,98358.37
2017-07-19T15:01:22.953Z,98342.05
2017-07-19T15:03:54.668Z,98356.32
2017-07-19T15:06:26.193Z,98356.95
2017-07-19T15:08:57.472Z,98344.30
2017-07-19T15:11:29.185Z,98353.84
2017-07-19T15:14:03.332Z,98342.80
2017-07-19T15:16:34.774Z,98312.86
2017-07-19T15:19:07.600Z,98301.39
2017-07-19T15:21:39.206Z,98324.81
2017-07-19T15:24:11.170Z,98327.34
2017-07-19T15:26:42.482Z,98301.02
2017-07-19T15:29:14.552Z,98322.53
2017-07-19T15:31:46.056Z,98325.64
2017-07-19T15:34:17.272Z,98330.60
2017-07-19T15:36:48.469Z,98321.28
2017-07-19T15:39:19.994Z,98330.16
2017-07-19T15:41:51.609Z,98330.45
2017-07-19T15:44:23.625Z,98309.43
2017-07-19T15:46:55.112Z,98333.72
2017-07-19T15:49:26.521Z,98328.52
2017-07-19T15:51:58.034Z,98320.52
2017-07-19T15:54:29.928Z,98311.35
2017-07-19T15:57:03.151Z,98320.83
2017-07-19T15:59:35.403Z,98324.10
2017-07-19T16:02:07.159Z,98280.61
2017-07-19T16:04:38.466Z,98305.83
2017-07-19T16:07:11.067Z,98313.19
2017-07-19T16:09:42.312Z,98311.86
2017-07-19T16:12:13.846Z,98321.37
2017-07-19T16:14:45.785Z,98312.63
2017-07-19T16:17:17.316Z,98309.35
2017-07-19T16:19:48.980Z,98304.89
2017-07-19T16:22:20.565Z,98310.36
2017-07-19T16:24:52.148Z,98315.65
2017-07-19T16:27:24.518Z,98279.16
2017-07-19T16:29:55.976Z,98312.84
2017-07-19T16:32:27.493Z,98312.05
2017-07-19T16:35:01.385Z,98302.78
2017-07-19T16:37:33.677Z,98313.55
2017-07-19T16:40:07.724Z,98309.22
2017-07-19T16:42:39.117Z,98295.42
2017-07-19T16:45:10.826Z,98287.88
2017-07-19T16:47:42.573Z,98250.59
2017-07-19T16:50:15.847Z,98271.36
2017-07-19T16:52:47.299Z,98276.96
2017-07-19T16:55:19.851Z,98275.22
2017-07-19T16:57:50.984Z,98284.43
2017-07-19T17:00:23.208Z,98271.64
2017-07-19T17:02:54.882Z,98273.59
2017-07-19T17:05:26.575Z,98291.27
2017-07-19T17:07:57.839Z,98287.40
2017-07-19T17:10:29.437Z,98277.45
2017-07-19T17:13:03.558Z,98291.09
2017-07-19T17:15:35.205Z,98265.52
2017-07-19T17:18:06.736Z,98289.92
2017-07-19T17:20:38.736Z,98288.45
2017-07-19T17:23:11.042Z,98294.02
2017-07-19T17:25:44.029Z,98288.58
2017-07-19T17:28:15.766Z,98294.59
2017-07-19T17:30:47.502Z,98292.08
2017-07-19T17:33:19.891Z,98302.53
2017-07-19T17:35:53.058Z,98295.92
2017-07-19T17:38:25.994Z,98299.79
2017-07-19T17:40:57.867Z,98296.09
2017-07-19T17:43:29.229Z,98297.14
2017-07-19T17:46:03.208Z,98304.23
2017-07-19T17:48:34.539Z,98308.69
2017-07-19T17:51:07.095Z,98259.45
2017-07-19T17:53:38.358Z,98309.69
2017-07-19T17:56:16.597Z,98260.52
2017-07-19T17:58:48.606Z,98316.50
2017-07-19T18:01:19.912Z,98313.09
2017-07-19T18:03:51.128Z,98309.75
2017-07-19T18:06:22.682Z,98209.83
2017-07-19T18:08:54.293Z,98300.97
2017-07-19T18:11:26.700Z,98307.56
2017-07-19T18:13:58.030Z,98293.33
2017-07-19T18:16:32.472Z,98290.30
2017-07-19T18:19:06.426Z,98287.05
2017-07-19T18:21:38.301Z,98282.15
2017-07-19T18:24:09.921Z,98294.83
2017-07-19T18:26:41.289Z,98296.93
2017-07-19T18:29:12.508Z,98295.77
2017-07-19T18:31:45.211Z,98295.28
2017-07-19T18:34:16.614Z,98239.81
2017-07-19T18:36:48.378Z,98282.73
2017-07-19T18:39:19.862Z,98289.79
2017-07-19T18:41:52.538Z,98262.78
2017-07-19T18:44:24.637Z,98274.62
2017-07-19T18:46:57.066Z,98267.59
2017-07-19T18:49:28.808Z,98266.00
2017-07-19T18:52:02.446Z,98260.03
2017-07-19T18:54:33.981Z,98268.70
2017-07-19T18:57:08.697Z,98268.70
2017-07-19T18:59:41.346Z,98281.30
2017-07-19T19:02:15.762Z,98286.88
2017-07-19T19:04:47.116Z,98301.08
2017-07-19T19:07:21.416Z,98319.71
2017-07-19T19:09:53.027Z,98328.70
2017-07-19T19:12:24.669Z,98337.31
2017-07-19T19:14:57.867Z,98341.67
2017-07-19T19:17:30.155Z,98371.66
2017-07-19T19:20:05.115Z,98447.52
2017-07-19T19:22:36.715Z,98509.34
2017-07-19T19:25:08.354Z,98412.41
2017-07-19T19:27:40.611Z,98552.17
2017-07-19T19:30:42.458Z,98557.52
2017-07-19T19:33:14.281Z,98577.08
2017-07-19T19:35:46.116Z,98634.02
2017-07-19T19:38:17.698Z,98642.41
2017-07-19T19:40:49.334Z,98625.91
2017-07-19T19:43:25.575Z,98699.99
2017-07-19T19:45:58.026Z,98753.45
2017-07-19T19:48:29.968Z,98773.08
2017-07-19T19:51:01.324Z,98772.02
2017-07-19T19:53:33.355Z,98742.82
2017-07-19T19:56:05.395Z,98755.42
2017-07-19T19:58:37.758Z,98725.31
2017-07-19T20:01:10.473Z,98731.84
2017-07-19T20:03:43.456Z,98739.34
2017-07-19T20:06:15.490Z,98729.37
2017-07-19T20:08:47.432Z,98743.30
2017-07-19T20:11:22.769Z,98736.61
2017-07-19T20:13:54.325Z,98719.27
2017-07-19T20:16:27.104Z,98722.86
2017-07-19T20:18:59.330Z,98740.59
2017-07-19T20:21:30.814Z,98725.52
2017-07-19T20:24:02.442Z,98710.47
2017-07-19T20:26:33.847Z,98734.10
2017-07-19T20:29:06.279Z,98717.08
2017-07-19T20:31:42.049Z,98706.80
2017-07-19T20:34:13.466Z,98702.17
2017-07-19T20:36:46.132Z,98684.06
2017-07-19T20:39:17.379Z,98623.39
2017-07-19T20:41:48.955Z,98624.48
2017-07-19T20:44:20.676Z,98618.05
2017-07-19T20:46:52.574Z,98592.97
2017-07-19T20:49:24.774Z,98519.28
2017-07-19T20:51:56.409Z,98528.83
2017-07-19T20:54:27.590Z,98500.04
2017-07-19T20:56:58.859Z,98495.53
2017-07-19T20:59:30.381Z,98506.89
2017-07-19T21:02:01.623Z,98499.47
2017-07-19T21:04:33.632Z,98491.05
2017-07-19T21:07:05.136Z,98486.16
2017-07-19T21:09:36.477Z,98491.82
2017-07-19T21:12:08.304Z,98498.66
2017-07-19T21:14:39.754Z,98519.06
2017-07-19T21:17:11.226Z,98543.07
2017-07-19T21:19:43.781Z,98578.56
2017-07-19T21:22:15.675Z,98666.90
2017-07-19T21:24:47.323Z,98644.44
2017-07-19T21:27:18.656Z,98645.88
2017-07-19T21:29:49.890Z,98627.23
2017-07-19T21:32:21.548Z,98629.20
2017-07-19T21:34:53.599Z,98611.23
2017-07-19T21:37:24.927Z,98616.97
2017-07-19T21:39:56.149Z,98641.27
2017-07-19T21:42:27.752Z,98645.03
2017-07-19T21:44:59.408Z,98659.90
2017-07-19T21:47:31.212Z,98671.20
2017-07-19T21:50:02.756Z,98675.15
2017-07-19T21:52:34.531Z,98682.92
2017-07-19T21:55:05.839Z,98686.56
2017-07-19T21:57:37.616Z,98676.73
2017-07-19T22:00:08.941Z,98655.05
2017-07-19T22:02:40.330Z,98644.91
2017-07-19T22:05:12.050Z,98645.99
2017-07-19T22:07:43.429Z,98629.12
2017-07-19T22:10:15.588Z,98611.95
2017-07-19T22:12:48.146Z,98589.63
2017-07-19T22:15:19.708Z,98596.08
2017-07-19T22:17:51.487Z,98565.45
2017-07-19T22:20:22.695Z,98554.61
2017-07-19T22:22:54.513Z,98565.41
2017-07-19T22:25:26.368Z,98591.34
2017-07-19T22:27:58.033Z,98581.33
2017-07-19T22:30:29.314Z,98558.73
2017-07-19T22:33:01.344Z,98495.66
2017-07-19T22:35:32.967Z,98476.55
2017-07-19T22:38:04.570Z,98451.86
2017-07-19T22:40:36.779Z,98438.66
2017-07-19T22:43:08.548Z,98422.02
2017-07-19T22:45:39.966Z,98432.92
2017-07-19T22:48:12.045Z,98424.92
2017-07-19T22:50:44.615Z,98387.19
2017-07-19T22:53:16.355Z,98361.05
2017-07-19T22:55:47.947Z,98361.53
2017-07-19T22:58:20.456Z,98347.83
2017-07-19T23:00:52.180Z,98395.86
2017-07-19T23:03:23.708Z,98418.58
2017-07-19T23:05:55.264Z,98415.27
2017-07-19T23:08:26.704Z,98429.36
2017-07-19T23:10:58.041Z,98432.66
2017-07-19T23:13:30.556Z,98436.71
2017-07-19T23:16:02.168Z,98436.63
2017-07-19T23:18:33.857Z,98395.34
2017-07-19T23:21:06.113Z,98419.39
2017-07-19T23:23:37.703Z,98407.61
2017-07-19T23:26:09.311Z,98401.34
2017-07-19T23:28:40.736Z,98390.55
2017-07-19T23:31:12.197Z,98392.39
2017-07-19T23:33:44.082Z,98388.91
2017-07-19T23:36:16.045Z,98381.44
2017-07-19T23:38:47.219Z,98358.22
2017-07-19T23:41:19.263Z,98321.03
2017-07-19T23:43:50.457Z,98367.41
2017-07-19T23:46:22.361Z,98371.91
2017-07-19T23:48:55.381Z,98368.64
2017-07-19T23:51:26.735Z,98376.94
2017-07-19T23:53:58.287Z,98362.13
2017-07-19T23:56:30.629Z,98370.52
2017-07-19T23:59:02.990Z,98371.47
